Time;durP1;ratioP1;P1;durP2;ratioP2;P2;SDS_P1;SDS_P2;PMS_P1;PMS_P2;Temp;Humidity;BMP_temperature;BMP_pressure;BME280_temperature;BME280_humidity;BME280_pressure;Samples;Min_cycle;Max_cycle;Signal;HPM_P1;HPM_P2
2023/02/22 00:00:22;;;;;;;8.93;4.50;;;;;;;11.19;43.40;99234.53;4905951;29;20039;-93
2023/02/22 00:02:49;;;;;;;6.55;3.33;;;;;;;11.11;43.47;99233.19;4906609;29;20028;-92
2023/02/22 00:05:18;;;;;;;6.95;3.72;;;;;;;11.03;43.65;99219.50;4905795;29;20043;-92
2023/02/22 01:03:40;;;;;;;6.20;3.88;;;;;;;10.00;47.48;99226.88;5118409;23;20540;-92
2023/02/22 01:06:06;;;;;;;6.25;3.92;;;;;;;9.86;47.44;99219.34;4927470;28;20117;-94
2023/02/22 01:08:31;;;;;;;9.20;4.18;;;;;;;9.71;47.57;99213.91;4927298;28;20034;-93
2023/02/22 01:10:57;;;;;;;13.02;4.93;;;;;;;9.63;47.89;99207.22;4927157;28;20416;-93
2023/02/22 01:13:22;;;;;;;8.98;4.53;;;;;;;9.67;47.49;99204.78;4926608;28;20058;-93
2023/02/22 01:15:51;;;;;;;11.57;4.93;;;;;;;9.81;47.86;99238.13;4926099;28;20062;-93
2023/02/22 01:18:16;;;;;;;9.20;4.50;;;;;;;9.77;47.83;99230.88;4927103;28;20022;-94
2023/02/22 01:20:46;;;;;;;12.35;4.47;;;;;;;9.55;47.86;99201.56;4926641;28;20023;-93
2023/02/22 01:23:16;;;;;;;8.77;4.63;;;;;;;9.55;47.71;99217.69;4943167;28;20471;-93
2023/02/22 01:25:42;;;;;;;10.23;4.57;;;;;;;9.42;48.37;99219.78;4928151;28;20019;-94
2023/02/22 01:28:07;;;;;;;10.32;5.13;;;;;;;9.33;48.73;99234.78;4927116;28;20512;-95
2023/02/22 01:30:34;;;;;;;6.22;3.65;;;;;;;9.08;49.08;99209.44;4927412;28;20027;-93
2023/02/22 01:33:00;;;;;;;8.52;4.05;;;;;;;8.98;49.25;99216.66;4942582;28;20023;-93
2023/02/22 01:35:32;;;;;;;7.03;3.78;;;;;;;9.16;49.21;99226.16;4927301;28;20031;-94
2023/02/22 01:37:58;;;;;;;6.82;4.25;;;;;;;9.23;48.96;99224.81;4927360;28;20027;-93
2023/02/22 01:40:43;;;;;;;6.97;3.88;;;;;;;9.30;48.64;99229.97;4926152;28;20029;-92
2023/02/22 01:43:26;;;;;;;6.93;4.00;;;;;;;9.25;48.74;99222.66;4926319;28;20521;-94
2023/02/22 01:46:01;;;;;;;5.65;3.60;;;;;;;9.23;48.99;99218.63;4926635;28;20034;-94
2023/02/22 01:48:44;;;;;;;6.35;3.67;;;;;;;9.25;49.23;99227.25;4941813;28;20023;-93
2023/02/22 01:51:13;;;;;;;5.72;3.38;;;;;;;9.18;49.02;99219.44;4927422;28;20030;-93
2023/02/22 01:53:46;;;;;;;6.85;3.85;;;;;;;9.19;48.97;99226.41;4926592;28;20489;-93
2023/02/22 01:56:11;;;;;;;5.68;3.75;;;;;;;9.23;49.14;99224.81;4927188;28;20031;-93
2023/02/22 01:58:38;;;;;;;6.68;3.80;;;;;;;9.14;49.33;99207.59;4926579;28;20162;-93
2023/02/22 02:01:04;;;;;;;6.90;4.03;;;;;;;9.16;49.58;99216.19;4926377;28;20035;-93
2023/02/22 02:03:32;;;;;;;8.57;3.83;;;;;;;9.12;49.33;99214.31;4926640;28;20049;-94
2023/02/22 02:05:59;;;;;;;8.88;4.15;;;;;;;9.04;49.45;99207.56;4926191;28;20031;-93
2023/02/22 02:08:41;;;;;;;6.38;3.50;;;;;;;9.07;49.38;99212.41;4926393;28;20033;-94
2023/02/22 02:11:07;;;;;;;5.55;3.28;;;;;;;9.13;49.48;99213.22;4927280;28;20019;-92
2023/02/22 02:13:33;;;;;;;7.75;3.72;;;;;;;9.18;49.60;99226.69;4927217;28;20483;-93
2023/02/22 02:15:58;;;;;;;4.72;3.17;;;;;;;9.16;49.52;99223.47;4925785;28;20117;-94
2023/02/22 02:18:24;;;;;;;5.50;3.38;;;;;;;9.16;49.26;99229.63;4925898;28;20027;-94
2023/02/22 02:21:05;;;;;;;8.60;3.53;;;;;;;9.22;49.47;99233.97;4927806;28;20448;-94
2023/02/22 02:23:54;;;;;;;8.32;3.50;;;;;;;9.23;49.74;99229.38;4945559;28;20035;-94
2023/02/22 02:26:57;;;;;;;5.03;3.60;;;;;;;9.22;50.00;99230.47;4948619;28;20061;-93
2023/02/22 02:29:31;;;;;;;6.05;3.30;;;;;;;9.14;50.02;99233.66;4961016;28;20401;-94
2023/02/22 02:31:59;;;;;;;5.90;2.83;;;;;;;9.14;49.45;99230.97;4945700;28;20026;-94
2023/02/22 02:34:28;;;;;;;6.97;3.00;;;;;;;9.16;49.68;99236.91;4961137;28;20077;-94
2023/02/22 02:37:19;;;;;;;6.75;3.45;;;;;;;9.17;49.79;99238.50;4961445;28;20031;-93
2023/02/22 02:39:53;;;;;;;6.25;3.78;;;;;;;9.16;49.68;99239.56;4945380;28;20090;-93
2023/02/22 02:42:27;;;;;;;6.35;3.20;;;;;;;9.12;49.60;99227.75;4945206;28;20410;-93
2023/02/22 02:45:11;;;;;;;5.78;3.35;;;;;;;9.01;49.62;99213.47;4929819;28;20112;-93
2023/02/22 02:47:39;;;;;;;5.05;3.17;;;;;;;9.03;49.71;99208.66;4931306;28;20489;-93
2023/02/22 02:50:26;;;;;;;6.47;3.33;;;;;;;9.16;50.09;99236.91;4930493;28;20030;-94
2023/02/22 02:52:52;;;;;;;5.43;3.55;;;;;;;9.01;50.10;99214.25;4961176;28;20081;-94
2023/02/22 02:55:18;;;;;;;7.03;3.50;;;;;;;9.02;50.15;99213.19;4929691;28;20058;-94
2023/02/22 02:57:43;;;;;;;6.57;3.88;;;;;;;9.08;49.94;99230.13;4929354;28;20031;-92
2023/02/22 03:00:21;;;;;;;5.90;3.40;;;;;;;9.06;50.72;99226.91;4946396;28;20026;-94
2023/02/22 03:03:10;;;;;;;8.70;3.58;;;;;;;9.02;50.69;99234.66;4932021;28;20405;-94
2023/02/22 03:05:41;;;;;;;8.63;3.45;;;;;;;9.01;50.62;99241.13;4961085;28;20035;-94
2023/02/22 03:08:45;;;;;;;12.77;3.97;;;;;;;8.96;50.79;99234.91;4945219;28;20449;-94
2023/02/22 03:12:13;;;;;;;6.55;3.90;;;;;;;9.03;50.42;99230.94;4918302;28;20128;-93
2023/02/22 03:14:59;;;;;;;7.13;3.17;;;;;;;9.02;50.34;99234.66;4849884;29;20124;-93
2023/02/22 03:17:29;;;;;;;5.78;3.20;;;;;;;9.01;50.89;99243.00;4865189;29;20033;-93
2023/02/22 03:20:09;;;;;;;4.88;3.40;;;;;;;8.94;51.19;99237.03;4925113;28;20041;-93
2023/02/22 03:22:55;;;;;;;4.05;2.78;;;;;;;9.00;51.02;99247.53;4929958;28;20030;-94
2023/02/22 03:25:29;;;;;;;3.90;2.63;;;;;;;9.00;50.57;99246.75;4945847;28;20027;-94
2023/02/22 03:28:01;;;;;;;4.90;2.80;;;;;;;8.92;50.03;99231.94;4929919;28;20048;-94
2023/02/22 03:30:38;;;;;;;3.70;2.63;;;;;;;9.07;50.17;99252.69;4929835;28;20029;-94
2023/02/22 03:33:07;;;;;;;5.65;3.03;;;;;;;9.02;50.22;99247.28;4944464;28;20023;-94
2023/02/22 03:35:36;;;;;;;6.72;2.72;;;;;;;8.88;50.28;99226.28;4929868;28;20492;-93
2023/02/22 03:38:02;;;;;;;5.28;3.17;;;;;;;8.92;50.31;99234.63;4928923;28;20492;-93
2023/02/22 03:40:34;;;;;;;6.63;3.45;;;;;;;8.98;50.25;99238.94;4928885;28;20034;-93
2023/02/22 03:43:05;;;;;;;;;;;;;;;9.03;50.70;99247.03;4929558;28;20023;-94
2023/02/22 03:45:31;;;;;;;3.90;2.70;;;;;;;9.00;50.15;99241.38;4944078;28;20482;-93
2023/02/22 03:48:16;;;;;;;5.60;3.40;;;;;;;8.87;50.77;99226.53;4928390;28;20054;-93
2023/02/22 03:50:42;;;;;;;5.32;3.85;;;;;;;8.70;51.10;99214.09;4930345;28;20121;-93
2023/02/22 03:53:07;;;;;;;7.53;4.00;;;;;;;8.69;51.33;99225.09;4929046;28;20106;-93
2023/02/22 03:55:33;;;;;;;6.50;4.03;;;;;;;8.82;51.51;99251.50;4943591;28;20057;-93
2023/02/22 03:58:00;;;;;;;5.65;3.38;;;;;;;8.65;51.52;99221.31;4927555;28;20037;-93
2023/02/22 04:00:28;;;;;;;5.78;3.22;;;;;;;8.57;51.42;99211.91;4927660;28;20382;-93
2023/02/22 04:02:54;;;;;;;6.68;3.03;;;;;;;8.75;51.36;99242.84;4927595;28;20130;-93
2023/02/22 04:05:19;;;;;;;9.27;3.88;;;;;;;8.63;51.58;99220.75;4928168;28;20102;-93
2023/02/22 04:07:45;;;;;;;7.22;3.33;;;;;;;8.55;52.06;99234.66;4927815;28;20457;-93
2023/02/22 04:10:11;;;;;;;6.38;3.75;;;;;;;8.46;52.25;99232.47;4928100;28;20019;-94
2023/02/22 04:12:37;;;;;;;6.75;3.45;;;;;;;8.53;52.21;99248.38;4943645;28;20496;-94
2023/02/22 04:18:27;;;;;;;6.05;3.45;;;;;;;8.56;52.43;99253.19;5193872;23;20056;-95
2023/02/22 04:23:38;;;;;;;6.22;3.65;;;;;;;8.39;53.21;99231.84;5021921;23;20055;-94
2023/02/22 04:26:04;;;;;;;9.93;4.22;;;;;;;8.43;52.91;99242.94;4908639;29;20505;-93
2023/02/22 04:28:29;;;;;;;6.53;3.78;;;;;;;8.41;52.97;99248.53;4908479;29;20041;-94
2023/02/22 04:30:55;;;;;;;7.72;4.15;;;;;;;8.34;52.96;99233.69;4908551;29;20035;-94
2023/02/22 04:33:21;;;;;;;17.50;3.55;;;;;;;8.38;53.23;99248.22;4907979;29;20031;-93
2023/02/22 04:35:46;;;;;;;7.40;3.97;;;;;;;8.33;52.93;99230.19;4908957;29;20031;-93
2023/02/22 04:38:12;;;;;;;6.25;3.65;;;;;;;8.51;53.11;99253.19;4924177;29;20031;-95
2023/02/22 04:40:38;;;;;;;8.95;3.28;;;;;;;8.49;53.08;99249.94;4907861;29;20035;-94
2023/02/22 04:43:03;;;;;;;8.05;3.63;;;;;;;8.52;53.02;99238.69;4907454;29;20027;-94
2023/02/22 04:45:29;;;;;;;12.55;5.00;;;;;;;8.47;53.36;99247.50;4923847;29;20031;-94
2023/02/22 04:47:55;;;;;;;12.52;4.70;;;;;;;8.38;53.14;99232.91;4908370;29;20031;-93
2023/02/22 04:50:20;;;;;;;9.27;4.50;;;;;;;8.50;53.14;99243.50;4907913;29;20027;-93
2023/02/22 04:52:46;;;;;;;9.15;4.30;;;;;;;8.59;53.08;99259.91;4908275;29;20034;-93
2023/02/22 04:55:11;;;;;;;10.50;4.10;;;;;;;8.60;52.97;99248.13;4908804;29;20035;-93
2023/02/22 04:57:40;;;;;;;14.82;6.15;;;;;;;8.62;53.37;99252.16;4908330;29;20023;-92
2023/02/22 05:00:12;;;;;;;12.30;4.63;;;;;;;8.54;53.26;99238.44;4908891;29;20031;-93
2023/02/22 05:02:38;;;;;;;;;;;;;;;8.72;53.28;99264.06;4910376;29;20062;-95
2023/02/22 05:05:04;;;;;;;8.90;3.92;;;;;;;8.57;53.54;99243.25;4923790;29;19958;-93
2023/02/22 05:07:30;;;;;;;11.23;4.05;;;;;;;8.66;53.57;99249.78;4908905;29;20090;-92
2023/02/22 05:09:55;;;;;;;9.23;3.05;;;;;;;8.63;53.93;99237.69;4908706;29;20054;-94
2023/02/22 05:12:27;;;;;;;8.73;2.80;;;;;;;8.81;53.43;99255.25;4910173;29;20114;-94
2023/02/22 05:14:53;;;;;;;5.22;2.67;;;;;;;8.97;53.53;99258.81;4908633;29;20031;-93
2023/02/22 05:17:19;;;;;;;8.48;3.38;;;;;;;9.01;53.27;99257.22;4909051;29;20035;-93
2023/02/22 05:19:52;;;;;;;8.65;3.90;;;;;;;9.00;52.94;99236.81;4909120;29;20023;-94
2023/02/22 05:22:18;;;;;;;7.55;3.65;;;;;;;9.20;52.97;99254.09;4908879;29;20047;-93
2023/02/22 05:24:53;;;;;;;7.65;4.20;;;;;;;9.31;52.59;99258.44;4909899;29;20030;-92
2023/02/22 05:27:24;;;;;;;20.20;6.53;;;;;;;9.27;52.62;99238.53;4925653;29;20033;-94
2023/02/22 05:29:50;;;;;;;18.23;6.32;;;;;;;9.48;52.33;99256.38;4913343;29;20023;-94
2023/02/22 05:32:29;;;;;;;25.75;8.27;;;;;;;9.48;52.16;99259.06;4910576;29;20379;-94
2023/02/22 05:35:04;;;;;;;34.88;9.35;;;;;;;9.43;52.10;99250.16;4911598;29;20027;-93
2023/02/22 05:37:49;;;;;;;24.25;9.55;;;;;;;9.50;52.22;99272.19;4926867;29;20051;-93
2023/02/22 05:40:25;;;;;;;29.25;8.68;;;;;;;9.51;52.37;99285.38;4912013;29;20066;-94
2023/02/22 05:42:55;;;;;;;18.17;8.00;;;;;;;9.48;52.05;99275.19;4925891;29;20493;-94
2023/02/22 05:45:23;;;;;;;29.65;8.25;;;;;;;9.55;51.95;99288.38;4912728;29;20023;-93
2023/02/22 05:47:48;;;;;;;21.15;8.85;;;;;;;9.52;52.21;99270.06;4913864;29;20027;-94
2023/02/22 05:50:19;;;;;;;28.33;9.70;;;;;;;9.51;52.21;99281.91;4911625;29;20101;-94
2023/02/22 05:52:45;;;;;;;19.27;7.68;;;;;;;9.51;51.97;99276.53;4914756;29;20065;-93
2023/02/22 05:55:12;;;;;;;17.85;7.72;;;;;;;9.55;51.77;99274.13;4917676;29;20051;-94
2023/02/22 05:57:48;;;;;;;19.70;8.63;;;;;;;9.68;51.16;99295.13;4918395;29;20038;-94
2023/02/22 06:01:46;;;;;;;16.63;6.70;;;;;;;9.69;50.91;99297.56;4933905;29;20062;-93
2023/02/22 06:03:44;;;;;;;12.32;5.25;;;;;;;9.71;50.57;99300.78;4943876;29;20034;-95
2023/02/22 06:06:19;;;;;;;10.15;5.97;;;;;;;9.75;50.61;99303.72;4932511;29;20027;-94
2023/02/22 06:08:47;;;;;;;19.13;5.93;;;;;;;9.76;50.42;99291.13;4914596;29;20023;-93
2023/02/22 06:11:13;;;;;;;16.98;6.15;;;;;;;9.83;50.55;99292.47;4915812;29;20035;-94
2023/02/22 06:13:39;;;;;;;19.17;7.07;;;;;;;9.97;50.23;99306.22;4915212;29;20089;-95
2023/02/22 06:16:10;;;;;;;16.33;6.60;;;;;;;10.10;50.20;99312.97;4934837;29;20397;-94
2023/02/22 06:18:36;;;;;;;16.38;8.60;;;;;;;10.14;50.25;99314.03;4918318;29;20039;-94
2023/02/22 06:21:14;;;;;;;28.33;12.23;;;;;;;10.08;49.90;99302.47;4920077;29;20058;-95
2023/02/22 06:26:49;;;;;;;27.10;11.95;;;;;;;10.28;49.90;99323.22;5004066;28;20065;-95
2023/02/22 06:29:17;;;;;;;38.78;13.60;;;;;;;10.36;50.00;99324.59;4960213;28;20567;-95
2023/02/22 06:31:43;;;;;;;31.88;11.90;;;;;;;10.45;49.64;99322.97;4953833;28;20037;-92
2023/02/22 06:34:19;;;;;;;;;;;;;;;;;;;;;
2023/02/22 06:36:52;;;;;;;34.38;12.10;;;;;;;10.70;49.41;99330.25;4973652;28;20121;-95
2023/02/22 06:39:21;;;;;;;20.95;10.07;;;;;;;10.74;49.25;99316.25;4954501;28;20109;-94
2023/02/22 06:47:28;;;;;;;20.55;8.68;;;;;;;11.17;48.05;99333.69;4975464;28;20072;-94
2023/02/22 06:50:28;;;;;;;27.20;8.80;;;;;;;10.96;48.46;99308.69;4963151;28;20034;-94
2023/02/22 06:53:08;;;;;;;13.85;7.40;;;;;;;10.87;48.52;99315.69;4958065;28;20082;-94
2023/02/22 06:55:43;;;;;;;24.73;9.68;;;;;;;11.21;48.82;99326.69;4895539;29;20530;-94
2023/02/22 06:58:27;;;;;;;21.38;8.60;;;;;;;11.25;48.36;99310.78;4866230;29;20128;-94
2023/02/22 07:04:00;;;;;;;9.48;4.25;;;;;;;11.86;47.25;99326.69;5215257;23;20158;-96
2023/02/22 07:28:09;;;;;;;6.00;2.55;;;;;;;14.02;41.61;99305.75;4820429;29;20053;-95
2023/02/22 07:31:00;;;;;;;7.60;3.53;;;;;;;14.14;41.88;99301.50;4897921;29;20068;-95
2023/02/22 07:33:37;;;;;;;4.22;2.60;;;;;;;14.23;40.69;99295.41;4882184;29;20074;-95
2023/02/22 07:36:30;;;;;;;4.70;2.22;;;;;;;14.24;39.98;99280.78;4881888;29;20025;-95
2023/02/22 07:39:47;;;;;;;;;;;;;;;;;;;;;
2023/02/22 07:58:28;;;;;;;3.38;1.98;;;;;;;14.95;39.23;99311.31;5068859;23;20042;-96
2023/02/22 08:01:20;;;;;;;2.90;1.98;;;;;;;14.96;39.11;99307.47;4962894;28;20113;-96
2023/02/22 08:03:52;;;;;;;3.50;1.95;;;;;;;15.05;39.55;99313.03;4955007;28;20037;-95
2023/02/22 08:06:41;;;;;;;4.18;2.63;;;;;;;15.08;39.35;99296.97;4936634;28;20120;-95
2023/02/22 08:21:12;;;;;;;2.63;1.38;;;;;;;15.16;38.73;99281.91;4981456;28;20094;-94
2023/02/22 08:29:06;;;;;;;3.38;1.70;;;;;;;15.22;38.85;99291.56;5246779;23;20063;-96
2023/02/22 08:37:10;;;;;;;1.83;1.10;;;;;;;15.25;38.96;99309.94;5215454;23;20055;-91
2023/02/22 08:46:06;;;;;;;33.65;17.50;;;;;;;15.15;39.38;99307.44;4900248;29;20052;-95
2023/02/22 08:49:13;;;;;;;;;;;;;;;;;;;;;
2023/02/22 08:51:39;;;;;;;3.65;1.60;;;;;;;15.05;39.32;99289.44;4955720;29;20055;-94
2023/02/22 08:54:06;;;;;;;2.90;1.40;;;;;;;15.05;39.29;99292.16;4908824;29;20438;-93
2023/02/22 08:56:32;;;;;;;3.20;1.50;;;;;;;15.10;39.31;99286.63;4924867;29;20035;-92
2023/02/22 08:59:57;;;;;;;;;;;;;;;;;;;;;
2023/02/22 09:03:12;;;;;;;2.45;1.42;;;;;;;15.30;38.72;99312.56;4961931;29;20549;-94
2023/02/22 09:06:17;;;;;;;;;;;;;;;;;;;;;
2023/02/22 09:08:52;;;;;;;1.40;1.10;;;;;;;15.27;38.71;99288.75;4899371;29;20043;-94
2023/02/22 09:12:08;;;;;;;5.65;1.85;;;;;;;15.39;38.56;99290.94;4883332;29;20063;-94
2023/02/22 09:15:29;;;;;;;;;;;;;;;;;;;;;
2023/02/22 10:23:36;;;;;;;5.47;1.67;;;;;;;16.51;37.17;99259.66;1525420;23;20320;31
2023/02/22 10:26:52;;;;;;;2.05;1.05;;;;;;;16.64;35.97;99247.09;5196257;23;21211;-94
2023/02/22 10:29:59;;;;;;;1.83;1.10;;;;;;;16.59;36.45;99241.81;4985301;28;20085;-96
2023/02/22 10:33:09;;;;;;;2.30;1.15;;;;;;;16.59;36.51;99223.56;4959966;28;20070;-96
2023/02/22 10:39:28;;;;;;;2.15;1.00;;;;;;;16.79;35.74;99216.81;4903634;29;20036;-96
2023/02/22 10:42:31;;;;;;;1.88;1.00;;;;;;;16.80;35.94;99210.22;4894579;29;20044;-92
2023/02/22 10:45:06;;;;;;;1.75;1.17;;;;;;;16.86;35.91;99225.34;4819625;29;20039;-93
2023/02/22 10:50:49;;;;;;;2.28;0.98;;;;;;;16.77;35.64;99200.00;5006853;23;20077;-94
2023/02/22 10:53:23;;;;;;;4.22;1.35;;;;;;;16.85;35.65;99212.03;4969233;28;20027;-93
2023/02/22 10:56:53;;;;;;;3.00;1.40;;;;;;;16.96;35.49;99216.09;4914945;29;20095;-94
2023/02/22 11:03:19;;;;;;;10.07;3.47;;;;;;;16.86;34.75;99217.16;5334748;23;20058;-94
2023/02/22 11:06:20;;;;;;;3.08;1.50;;;;;;;16.87;35.44;99223.41;5234298;23;20132;-94
2023/02/22 11:09:30;;;;;;;4.95;1.20;;;;;;;16.94;35.00;99223.78;4921224;29;20111;-96
2023/02/22 11:37:03;;;;;;;;;;;;;;;;;;;;;
2023/02/22 11:40:02;;;;;;;2.35;1.00;;;;;;;16.80;36.08;99193.91;4916560;29;20075;-94
2023/02/22 11:42:55;;;;;;;1.52;1.08;;;;;;;16.80;35.69;99188.47;4935253;29;20047;-93
2023/02/22 11:53:33;;;;;;;3.28;1.65;;;;;;;16.83;35.57;99179.75;4933753;29;20054;-94
2023/02/22 11:56:44;;;;;;;1.77;1.23;;;;;;;16.78;36.14;99179.84;4918564;29;20048;-94
2023/02/22 12:17:58;;;;;;;2.78;1.70;;;;;;;16.81;36.54;99181.97;4956055;28;20487;-92
2023/02/22 12:20:30;;;;;;;3.38;1.90;;;;;;;16.72;36.46;99162.06;4940622;29;20062;-93
2023/02/22 12:23:19;;;;;;;3.70;2.20;;;;;;;16.87;36.09;99161.69;4907437;29;20050;-93
2023/02/22 12:26:29;;;;;;;;;;;;;;;;;;;;;
2023/02/22 12:33:23;;;;;;;2.47;1.58;;;;;;;16.89;36.78;99151.28;4822311;29;20573;-94
2023/02/22 12:35:57;;;;;;;3.50;1.92;;;;;;;16.92;36.68;99145.19;4844583;29;20529;-94
2023/02/22 12:38:56;;;;;;;4.90;1.65;;;;;;;17.08;36.70;99159.16;4817527;29;20030;-95
2023/02/22 12:45:40;;;;;;;3.15;1.77;;;;;;;17.07;37.02;99160.28;4785338;30;20035;-95
2023/02/22 12:48:43;;;;;;;4.00;1.90;;;;;;;17.10;36.67;99156.94;4738263;30;20043;-94
2023/02/22 12:52:11;;;;;;;5.15;2.72;;;;;;;17.09;37.00;99158.03;4822224;29;20240;-95
2023/02/22 12:55:07;;;;;;;2.55;1.63;;;;;;;17.11;36.74;99158.53;4814601;29;20047;-94
2023/02/22 13:24:56;;;;;;;;;;;;;;;;;;;;;
2023/02/22 13:28:25;;;;;;;;;;;;;;;;;;;;;
2023/02/22 13:45:21;;;;;;;;;;;;;;;;;;;;;
2023/02/22 13:49:15;;;;;;;4.35;2.53;;;;;;;17.26;37.02;99142.88;4885522;29;20037;-94
2023/02/22 13:56:02;;;;;;;;;;;;;;;;;;;;;
2023/02/22 14:35:23;;;;;;;4.35;2.10;;;;;;;16.92;37.99;99138.97;4971906;29;20070;-95
2023/02/22 14:38:07;;;;;;;4.65;2.40;;;;;;;17.12;37.72;99170.19;4938067;29;20121;-96
2023/02/22 14:41:28;;;;;;;;;;;;;;;;;;;;;
2023/02/22 14:44:07;;;;;;;5.53;2.40;;;;;;;16.88;38.47;99151.59;4937339;29;20063;-95
2023/02/22 14:55:32;;;;;;;5.05;2.47;;;;;;;16.83;38.61;99149.84;4961029;28;20058;-92
2023/02/22 14:58:09;;;;;;;4.38;2.55;;;;;;;16.74;38.74;99128.00;4941862;29;20039;-92
2023/02/22 15:00:44;;;;;;;6.00;2.08;;;;;;;16.68;39.13;99142.06;4925711;29;20497;-93
2023/02/22 15:03:38;;;;;;;3.38;2.30;;;;;;;16.74;39.08;99147.03;4910408;29;20047;-92
2023/02/22 15:06:14;;;;;;;5.03;2.30;;;;;;;16.75;39.24;99145.13;4928238;29;20080;-91
2023/02/22 15:09:17;;;;;;;4.40;2.22;;;;;;;16.84;38.92;99156.84;4915826;29;20038;-95
2023/02/22 15:15:21;;;;;;;5.47;2.10;;;;;;;16.63;39.56;99151.16;4927669;29;20044;-95
2023/02/22 15:18:05;;;;;;;6.10;2.40;;;;;;;16.56;39.54;99150.81;4923814;29;20027;-93
2023/02/22 15:23:59;;;;;;;6.18;2.50;;;;;;;16.48;39.79;99151.59;4896683;29;20037;-94
2023/02/22 15:33:27;;;;;;;4.60;2.45;;;;;;;16.40;40.06;99158.56;4875240;29;20038;-94
2023/02/22 15:35:56;;;;;;;3.20;2.20;;;;;;;16.26;40.31;99152.44;4855935;29;20443;-91
2023/02/22 15:38:27;;;;;;;3.97;2.55;;;;;;;16.29;40.17;99158.03;4868527;29;20029;-91
2023/02/22 15:41:03;;;;;;;17.95;12.98;;;;;;;16.21;40.43;99153.38;4868281;29;20101;-91
2023/02/22 15:43:30;;;;;;;4.00;2.80;;;;;;;16.16;40.23;99145.34;4911019;29;20028;-92
2023/02/22 15:45:56;;;;;;;6.57;3.13;;;;;;;16.24;40.41;99152.72;4910586;29;20027;-90
2023/02/22 15:48:25;;;;;;;4.63;2.92;;;;;;;16.24;40.33;99160.09;4908857;29;20099;-93
2023/02/22 15:51:13;;;;;;;10.00;3.28;;;;;;;16.25;40.81;99158.97;4902207;29;20468;-92
2023/02/22 15:53:57;;;;;;;4.40;3.03;;;;;;;16.16;40.63;99153.47;4909901;29;20055;-92
2023/02/22 15:56:29;;;;;;;9.30;4.35;;;;;;;16.12;41.08;99147.06;4893899;29;20055;-93
2023/02/22 15:59:14;;;;;;;6.30;3.47;;;;;;;16.03;41.13;99163.31;4907588;29;20035;-92
2023/02/22 16:01:41;;;;;;;8.02;2.70;;;;;;;16.07;40.94;99168.94;4891320;29;20036;-94
2023/02/22 16:04:06;;;;;;;4.03;2.63;;;;;;;15.92;41.07;99143.75;4891038;29;20387;-93
2023/02/22 16:06:37;;;;;;;8.00;3.40;;;;;;;16.04;41.13;99169.53;4891282;29;20042;-93
2023/02/22 16:09:46;;;;;;;6.35;3.25;;;;;;;15.92;41.14;99165.47;4892069;29;20027;-95
2023/02/22 16:12:28;;;;;;;7.00;2.55;;;;;;;15.93;41.23;99171.72;4893556;29;20127;-94
2023/02/22 17:17:10;;;;;;;12.10;5.93;;;;;;;13.94;46.29;99201.63;5060406;23;20102;-95
2023/02/22 17:19:38;;;;;;;7.78;4.53;;;;;;;14.03;46.01;99215.28;4894328;29;20031;-94
2023/02/22 17:22:37;;;;;;;9.25;4.38;;;;;;;13.91;46.30;99213.06;4894626;29;20502;-94
2023/02/22 17:25:24;;;;;;;14.23;4.68;;;;;;;13.98;46.52;99237.03;4896149;29;20134;-95
2023/02/22 17:27:53;;;;;;;10.30;4.00;;;;;;;13.81;46.70;99215.91;4910877;29;20118;-94
2023/02/22 17:30:22;;;;;;;13.65;5.53;;;;;;;13.76;46.72;99224.91;4908347;29;20564;-95
2023/02/22 17:32:54;;;;;;;8.75;5.47;;;;;;;13.80;46.87;99236.78;4894598;29;20031;-94
2023/02/22 17:35:29;;;;;;;7.38;4.78;;;;;;;13.63;47.19;99222.94;4908568;29;20046;-94
2023/02/22 17:38:25;;;;;;;9.00;5.38;;;;;;;13.66;47.27;99238.59;4894338;29;20062;-94
2023/02/22 17:43:58;;;;;;;20.92;10.73;;;;;;;13.33;47.91;99217.66;4918233;29;20043;-93
2023/02/22 17:46:52;;;;;;;23.92;11.82;;;;;;;13.48;48.17;99242.88;4937092;29;20044;-96
2023/02/22 17:50:03;;;;;;;17.98;10.10;;;;;;;13.47;48.12;99239.38;4834431;29;20093;-94
2023/02/22 17:53:27;;;;;;;;;;;;;;;;;;;;;
2023/02/22 17:56:39;;;;;;;18.88;10.05;;;;;;;13.39;48.04;99245.44;4848455;29;20082;-95
2023/02/22 17:59:45;;;;;;;23.27;11.65;;;;;;;13.19;48.53;99214.00;4787026;29;20053;-96
2023/02/22 18:02:20;;;;;;;19.52;11.82;;;;;;;13.31;48.46;99241.47;4808506;29;20053;-95
2023/02/22 18:05:55;;;;;;;16.75;10.57;;;;;;;13.21;48.55;99211.03;4853451;29;20183;-94
2023/02/22 18:09:08;;;;;;;19.30;9.18;;;;;;;13.29;48.66;99232.03;4849078;29;20030;-95
2023/02/22 18:27:38;;;;;;;16.90;8.48;;;;;;;12.78;49.40;99229.88;5035887;23;20053;-94
2023/02/22 18:33:41;;;;;;;13.15;6.75;;;;;;;12.51;50.22;99220.41;5465643;23;20056;-94
2023/02/22 18:36:15;;;;;;;11.98;5.75;;;;;;;12.37;50.32;99225.69;4943506;29;20035;-94
2023/02/22 18:54:03;;;;;;;10.15;6.10;;;;;;;12.20;51.59;99247.72;5730233;23;20066;-95
2023/02/22 18:57:34;;;;;;;10.60;6.93;;;;;;;12.09;51.76;99254.25;4949016;29;20043;-93
2023/02/22 19:10:37;;;;;;;12.95;7.97;;;;;;;11.89;51.99;99245.25;5577806;23;20056;-92
2023/02/22 19:13:03;;;;;;;12.82;8.00;;;;;;;11.83;52.57;99253.59;4872888;29;20051;-93
2023/02/22 19:15:29;;;;;;;15.18;9.50;;;;;;;11.56;52.60;99243.22;4873319;29;20055;-93
2023/02/22 19:17:55;;;;;;;11.75;6.97;;;;;;;11.52;52.95;99256.47;4872646;29;20079;-94
2023/02/22 19:20:21;;;;;;;17.02;7.80;;;;;;;11.38;53.32;99260.84;4872842;29;20031;-94
2023/02/22 19:22:49;;;;;;;15.52;7.53;;;;;;;11.31;53.41;99264.66;4887977;29;20119;-94
2023/02/22 19:25:15;;;;;;;19.92;8.35;;;;;;;11.14;53.49;99250.69;4873508;29;20036;-93
2023/02/22 19:27:43;;;;;;;20.50;7.90;;;;;;;11.07;53.87;99267.16;4872417;29;20565;-94
2023/02/22 19:30:09;;;;;;;16.90;7.18;;;;;;;11.11;54.08;99272.81;4873355;29;20035;-93
2023/02/22 19:32:43;;;;;;;16.00;7.80;;;;;;;10.91;54.21;99255.63;4873065;29;20035;-93
2023/02/22 19:35:09;;;;;;;13.07;7.38;;;;;;;10.97;53.80;99261.78;4889016;29;20483;-93
2023/02/22 19:37:39;;;;;;;11.73;6.18;;;;;;;11.03;54.01;99273.38;4872163;29;20035;-94
2023/02/22 19:40:08;;;;;;;8.73;5.70;;;;;;;10.99;54.15;99275.81;4872068;29;20519;-95
2023/02/22 19:42:34;;;;;;;10.52;5.45;;;;;;;10.84;54.28;99248.91;4873325;29;20028;-93
2023/02/22 19:44:59;;;;;;;12.65;5.85;;;;;;;10.86;54.17;99258.31;4871978;29;20122;-93
2023/02/22 19:47:25;;;;;;;8.00;5.28;;;;;;;10.89;54.08;99262.34;4872494;29;20024;-94
2023/02/22 19:49:51;;;;;;;12.63;6.03;;;;;;;10.80;54.54;99272.88;4872538;29;20090;-94
2023/02/22 19:52:27;;;;;;;13.82;7.22;;;;;;;10.77;54.78;99270.75;4873379;29;20027;-94
2023/02/22 19:54:53;;;;;;;11.30;6.00;;;;;;;10.66;55.22;99266.44;4873713;29;20024;-93
2023/02/22 19:57:22;;;;;;;10.73;6.00;;;;;;;10.72;54.95;99274.22;4872357;29;20119;-93
2023/02/22 19:59:51;;;;;;;10.88;6.15;;;;;;;10.76;54.83;99276.41;4873852;29;20525;-94
2023/02/22 20:02:17;;;;;;;11.90;5.85;;;;;;;10.52;55.03;99271.56;4872143;29;20118;-93
2023/02/22 20:04:48;;;;;;;10.02;6.03;;;;;;;10.41;55.68;99286.91;4873237;29;20512;-94
2023/02/22 20:07:14;;;;;;;14.13;6.05;;;;;;;10.30;56.23;99280.72;4873804;29;20463;-95
2023/02/22 20:09:41;;;;;;;12.10;6.43;;;;;;;10.20;56.04;99278.00;4872532;29;20036;-93
2023/02/22 20:12:07;;;;;;;16.60;6.72;;;;;;;10.23;55.92;99282.03;4890118;29;20084;-94
2023/02/22 20:14:33;;;;;;;10.52;6.13;;;;;;;10.26;56.16;99287.69;4891152;29;20036;-93
2023/02/22 20:16:59;;;;;;;14.13;6.45;;;;;;;10.14;56.51;99268.31;4890583;29;20039;-93
2023/02/22 20:19:25;;;;;;;10.43;6.07;;;;;;;10.21;56.09;99274.25;4890472;29;20032;-93
2023/02/22 20:21:51;;;;;;;15.52;7.43;;;;;;;10.16;56.35;99273.44;4905541;29;20028;-92
2023/02/22 20:24:17;;;;;;;12.68;7.45;;;;;;;10.07;56.55;99259.72;4905911;29;20126;-94
2023/02/22 20:26:43;;;;;;;10.15;6.25;;;;;;;9.91;56.65;99264.25;4890273;29;20031;-93
2023/02/22 20:29:13;;;;;;;10.73;6.25;;;;;;;9.80;56.83;99268.81;4891118;29;20024;-93
2023/02/22 20:31:42;;;;;;;13.07;6.40;;;;;;;9.94;56.93;99297.88;4890596;29;20027;-92
2023/02/22 20:34:08;;;;;;;14.35;6.47;;;;;;;9.77;57.06;99288.13;4905716;29;20042;-93
2023/02/22 20:36:39;;;;;;;15.00;7.65;;;;;;;9.83;56.85;99289.78;4890503;29;20122;-93
2023/02/22 20:39:12;;;;;;;23.67;8.80;;;;;;;9.87;56.94;99290.84;4891414;29;20063;-93
2023/02/22 20:41:38;;;;;;;36.92;14.98;;;;;;;9.91;57.12;99299.22;4906170;29;20031;-94
2023/02/22 20:44:05;;;;;;;22.70;10.60;;;;;;;9.85;57.08;99298.38;4890160;29;20063;-92
2023/02/22 20:46:31;;;;;;;29.25;13.15;;;;;;;9.82;56.91;99304.31;4890173;29;20027;-94
2023/02/22 20:48:58;;;;;;;20.00;11.30;;;;;;;9.70;57.41;99282.22;4890357;29;20034;-94
2023/02/22 20:51:24;;;;;;;23.98;8.75;;;;;;;9.60;57.75;99287.56;4890351;29;20454;-94